sensor_id;sensor_type;location;lat;lon;timestamp;temperature;humidity
44229;DHT22;29904;51.058;5.378;2023-07-30T00:01:54;16.60;99.90
44229;DHT22;29904;51.058;5.378;2023-07-30T00:04:20;16.70;99.90
44229;DHT22;29904;51.058;5.378;2023-07-30T00:06:46;16.70;99.90
44229;DHT22;29904;51.058;5.378;2023-07-30T00:09:12;16.70;99.90
44229;DHT22;29904;51.058;5.378;2023-07-30T00:11:38;16.80;99.90
44229;DHT22;29904;51.058;5.378;2023-07-30T00:14:04;16.80;99.90
44229;DHT22;29904;51.058;5.378;2023-07-30T00:16:29;16.80;99.90
44229;DHT22;29904;51.058;5.378;2023-07-30T00:18:55;16.80;99.90
44229;DHT22;29904;51.058;5.378;2023-07-30T00:21:22;16.80;99.90
44229;DHT22;29904;51.058;5.378;2023-07-30T00:23:48;16.70;99.90
44229;DHT22;29904;51.058;5.378;2023-07-30T00:26:14;16.60;99.90
44229;DHT22;29904;51.058;5.378;2023-07-30T00:28:39;16.50;99.90
44229;DHT22;29904;51.058;5.378;2023-07-30T00:31:05;16.50;99.90
44229;DHT22;29904;51.058;5.378;2023-07-30T00:33:31;16.40;99.90
44229;DHT22;29904;51.058;5.378;2023-07-30T00:35:56;16.30;99.90
44229;DHT22;29904;51.058;5.378;2023-07-30T00:38:22;16.30;99.90
44229;DHT22;29904;51.058;5.378;2023-07-30T00:40:49;16.20;99.90
44229;DHT22;29904;51.058;5.378;2023-07-30T00:43:14;16.10;99.90
44229;DHT22;29904;51.058;5.378;2023-07-30T00:45:42;16.10;99.90
44229;DHT22;29904;51.058;5.378;2023-07-30T00:48:10;16.00;99.90
44229;DHT22;29904;51.058;5.378;2023-07-30T00:50:36;16.00;99.90
44229;DHT22;29904;51.058;5.378;2023-07-30T00:53:02;15.90;99.90
44229;DHT22;29904;51.058;5.378;2023-07-30T00:55:28;15.80;99.90
44229;DHT22;29904;51.058;5.378;2023-07-30T00:57:54;15.80;99.90
44229;DHT22;29904;51.058;5.378;2023-07-30T01:00:20;15.80;99.90
44229;DHT22;29904;51.058;5.378;2023-07-30T01:02:45;15.70;99.90
44229;DHT22;29904;51.058;5.378;2023-07-30T01:05:11;15.70;99.90
44229;DHT22;29904;51.058;5.378;2023-07-30T01:07:37;15.60;99.90
44229;DHT22;29904;51.058;5.378;2023-07-30T01:10:03;15.60;99.90
44229;DHT22;29904;51.058;5.378;2023-07-30T01:12:30;15.50;99.90
44229;DHT22;29904;51.058;5.378;2023-07-30T01:14:59;15.50;99.90
44229;DHT22;29904;51.058;5.378;2023-07-30T01:17:25;15.40;99.90
44229;DHT22;29904;51.058;5.378;2023-07-30T01:19:53;15.30;99.90
44229;DHT22;29904;51.058;5.378;2023-07-30T01:22:23;15.30;99.90
44229;DHT22;29904;51.058;5.378;2023-07-30T01:24:49;15.30;99.90
44229;DHT22;29904;51.058;5.378;2023-07-30T01:27:25;15.20;99.90
44229;DHT22;29904;51.058;5.378;2023-07-30T01:29:52;15.20;99.90
44229;DHT22;29904;51.058;5.378;2023-07-30T01:32:26;15.20;99.90
44229;DHT22;29904;51.058;5.378;2023-07-30T01:34:55;15.30;99.90
44229;DHT22;29904;51.058;5.378;2023-07-30T01:37:22;15.20;99.90
44229;DHT22;29904;51.058;5.378;2023-07-30T01:39:49;15.20;99.90
44229;DHT22;29904;51.058;5.378;2023-07-30T01:42:15;15.20;99.90
44229;DHT22;29904;51.058;5.378;2023-07-30T01:44:41;15.20;99.90
44229;DHT22;29904;51.058;5.378;2023-07-30T01:47:07;15.20;99.90
44229;DHT22;29904;51.058;5.378;2023-07-30T01:49:33;15.20;99.90
44229;DHT22;29904;51.058;5.378;2023-07-30T01:51:59;15.10;99.90
44229;DHT22;29904;51.058;5.378;2023-07-30T01:54:24;15.10;99.90
44229;DHT22;29904;51.058;5.378;2023-07-30T01:56:50;15.10;99.90
44229;DHT22;29904;51.058;5.378;2023-07-30T01:59:16;15.10;99.90
44229;DHT22;29904;51.058;5.378;2023-07-30T02:01:42;15.10;99.90
44229;DHT22;29904;51.058;5.378;2023-07-30T02:04:08;15.10;99.90
44229;DHT22;29904;51.058;5.378;2023-07-30T02:06:34;15.20;99.90
44229;DHT22;29904;51.058;5.378;2023-07-30T02:09:00;15.20;99.90
44229;DHT22;29904;51.058;5.378;2023-07-30T02:11:25;15.30;99.90
44229;DHT22;29904;51.058;5.378;2023-07-30T02:13:51;15.40;99.90
44229;DHT22;29904;51.058;5.378;2023-07-30T02:16:17;15.50;99.90
44229;DHT22;29904;51.058;5.378;2023-07-30T02:18:42;15.50;99.90
44229;DHT22;29904;51.058;5.378;2023-07-30T02:21:08;15.60;99.90
44229;DHT22;29904;51.058;5.378;2023-07-30T02:23:34;15.60;99.90
44229;DHT22;29904;51.058;5.378;2023-07-30T02:26:00;15.70;99.90
44229;DHT22;29904;51.058;5.378;2023-07-30T02:28:25;15.80;99.90
44229;DHT22;29904;51.058;5.378;2023-07-30T02:30:51;15.90;99.90
44229;DHT22;29904;51.058;5.378;2023-07-30T02:33:17;16.00;99.90
44229;DHT22;29904;51.058;5.378;2023-07-30T02:35:45;16.00;99.90
44229;DHT22;29904;51.058;5.378;2023-07-30T02:38:11;16.00;99.90
44229;DHT22;29904;51.058;5.378;2023-07-30T02:40:37;16.10;99.90
44229;DHT22;29904;51.058;5.378;2023-07-30T02:43:03;16.10;99.90
44229;DHT22;29904;51.058;5.378;2023-07-30T02:45:29;16.10;99.90
44229;DHT22;29904;51.058;5.378;2023-07-30T02:47:54;16.10;99.90
44229;DHT22;29904;51.058;5.378;2023-07-30T02:50:20;16.00;99.90
44229;DHT22;29904;51.058;5.378;2023-07-30T02:52:46;16.10;99.90
44229;DHT22;29904;51.058;5.378;2023-07-30T02:55:11;16.10;99.90
44229;DHT22;29904;51.058;5.378;2023-07-30T02:57:37;16.10;99.90
44229;DHT22;29904;51.058;5.378;2023-07-30T03:00:03;16.10;99.90
44229;DHT22;29904;51.058;5.378;2023-07-30T03:02:30;16.10;99.90
44229;DHT22;29904;51.058;5.378;2023-07-30T03:04:56;16.10;99.90
44229;DHT22;29904;51.058;5.378;2023-07-30T03:07:21;16.10;99.90
44229;DHT22;29904;51.058;5.378;2023-07-30T03:09:48;16.10;99.90
44229;DHT22;29904;51.058;5.378;2023-07-30T03:12:13;16.00;99.90
44229;DHT22;29904;51.058;5.378;2023-07-30T03:14:39;16.00;99.90
44229;DHT22;29904;51.058;5.378;2023-07-30T03:17:05;15.90;99.90
44229;DHT22;29904;51.058;5.378;2023-07-30T03:19:31;15.90;99.90
44229;DHT22;29904;51.058;5.378;2023-07-30T03:21:57;15.90;99.90
44229;DHT22;29904;51.058;5.378;2023-07-30T03:24:22;15.80;99.90
44229;DHT22;29904;51.058;5.378;2023-07-30T03:26:48;15.80;99.90
44229;DHT22;29904;51.058;5.378;2023-07-30T03:29:15;15.70;99.90
44229;DHT22;29904;51.058;5.378;2023-07-30T03:31:41;15.70;99.90
44229;DHT22;29904;51.058;5.378;2023-07-30T03:34:07;15.60;99.90
44229;DHT22;29904;51.058;5.378;2023-07-30T03:36:32;15.60;99.90
44229;DHT22;29904;51.058;5.378;2023-07-30T03:38:58;15.60;99.90
44229;DHT22;29904;51.058;5.378;2023-07-30T03:41:24;15.60;99.90
44229;DHT22;29904;51.058;5.378;2023-07-30T03:43:50;15.60;99.90
44229;DHT22;29904;51.058;5.378;2023-07-30T03:46:16;15.60;99.90
44229;DHT22;29904;51.058;5.378;2023-07-30T03:48:42;15.70;99.90
44229;DHT22;29904;51.058;5.378;2023-07-30T03:51:08;15.80;99.90
44229;DHT22;29904;51.058;5.378;2023-07-30T03:53:34;15.80;99.90
44229;DHT22;29904;51.058;5.378;2023-07-30T03:55:59;15.90;99.90
44229;DHT22;29904;51.058;5.378;2023-07-30T03:58:25;15.90;99.90
44229;DHT22;29904;51.058;5.378;2023-07-30T04:00:51;16.00;99.90
44229;DHT22;29904;51.058;5.378;2023-07-30T04:03:16;16.10;99.90
44229;DHT22;29904;51.058;5.378;2023-07-30T04:05:42;16.10;99.90
44229;DHT22;29904;51.058;5.378;2023-07-30T04:08:08;16.10;99.90
44229;DHT22;29904;51.058;5.378;2023-07-30T04:10:33;16.10;99.90
44229;DHT22;29904;51.058;5.378;2023-07-30T04:12:59;16.10;99.90
44229;DHT22;29904;51.058;5.378;2023-07-30T04:15:25;16.10;99.90
44229;DHT22;29904;51.058;5.378;2023-07-30T04:17:51;16.10;99.90
44229;DHT22;29904;51.058;5.378;2023-07-30T04:20:16;16.10;99.90
44229;DHT22;29904;51.058;5.378;2023-07-30T04:22:43;16.10;99.90
44229;DHT22;29904;51.058;5.378;2023-07-30T04:25:09;16.20;99.90
44229;DHT22;29904;51.058;5.378;2023-07-30T04:27:36;16.20;99.90
44229;DHT22;29904;51.058;5.378;2023-07-30T04:30:04;16.20;99.90
44229;DHT22;29904;51.058;5.378;2023-07-30T04:32:30;16.20;99.90
44229;DHT22;29904;51.058;5.378;2023-07-30T04:34:55;16.20;99.90
44229;DHT22;29904;51.058;5.378;2023-07-30T04:37:21;16.20;99.90
44229;DHT22;29904;51.058;5.378;2023-07-30T04:39:48;16.20;99.90
44229;DHT22;29904;51.058;5.378;2023-07-30T04:42:13;16.20;99.90
44229;DHT22;29904;51.058;5.378;2023-07-30T04:44:40;16.20;99.90
44229;DHT22;29904;51.058;5.378;2023-07-30T04:47:07;16.20;99.90
44229;DHT22;29904;51.058;5.378;2023-07-30T04:49:33;16.20;99.90
44229;DHT22;29904;51.058;5.378;2023-07-30T04:51:59;16.20;99.90
44229;DHT22;29904;51.058;5.378;2023-07-30T04:54:25;16.20;99.90
44229;DHT22;29904;51.058;5.378;2023-07-30T04:56:50;16.10;99.90
44229;DHT22;29904;51.058;5.378;2023-07-30T04:59:16;16.20;99.90
44229;DHT22;29904;51.058;5.378;2023-07-30T05:01:42;16.20;99.90
44229;DHT22;29904;51.058;5.378;2023-07-30T05:04:08;16.20;99.90
44229;DHT22;29904;51.058;5.378;2023-07-30T05:06:33;16.30;99.90
44229;DHT22;29904;51.058;5.378;2023-07-30T05:08:59;16.30;99.90
44229;DHT22;29904;51.058;5.378;2023-07-30T05:11:25;16.20;99.90
44229;DHT22;29904;51.058;5.378;2023-07-30T05:13:50;16.30;99.90
44229;DHT22;29904;51.058;5.378;2023-07-30T05:16:16;16.40;99.90
44229;DHT22;29904;51.058;5.378;2023-07-30T05:18:42;16.40;99.90
44229;DHT22;29904;51.058;5.378;2023-07-30T05:21:07;16.50;99.90
44229;DHT22;29904;51.058;5.378;2023-07-30T05:23:33;16.50;99.90
44229;DHT22;29904;51.058;5.378;2023-07-30T05:25:59;16.40;99.90
44229;DHT22;29904;51.058;5.378;2023-07-30T05:28:25;16.40;99.90
44229;DHT22;29904;51.058;5.378;2023-07-30T05:30:51;16.40;99.90
44229;DHT22;29904;51.058;5.378;2023-07-30T05:33:16;16.50;99.90
44229;DHT22;29904;51.058;5.378;2023-07-30T05:35:42;16.60;99.90
44229;DHT22;29904;51.058;5.378;2023-07-30T05:38:08;16.60;99.90
44229;DHT22;29904;51.058;5.378;2023-07-30T05:40:35;16.70;99.90
44229;DHT22;29904;51.058;5.378;2023-07-30T05:43:01;16.70;99.90
44229;DHT22;29904;51.058;5.378;2023-07-30T05:45:26;16.80;99.90
44229;DHT22;29904;51.058;5.378;2023-07-30T05:47:52;16.80;99.90
44229;DHT22;29904;51.058;5.378;2023-07-30T05:50:18;16.90;99.90
44229;DHT22;29904;51.058;5.378;2023-07-30T05:52:44;16.80;99.90
44229;DHT22;29904;51.058;5.378;2023-07-30T05:55:09;16.80;99.90
44229;DHT22;29904;51.058;5.378;2023-07-30T05:57:35;16.80;99.90
44229;DHT22;29904;51.058;5.378;2023-07-30T06:00:01;16.90;99.90
44229;DHT22;29904;51.058;5.378;2023-07-30T06:02:27;17.00;99.90
44229;DHT22;29904;51.058;5.378;2023-07-30T06:04:53;17.00;99.90
44229;DHT22;29904;51.058;5.378;2023-07-30T06:07:18;17.10;99.90
44229;DHT22;29904;51.058;5.378;2023-07-30T06:09:44;17.10;99.90
44229;DHT22;29904;51.058;5.378;2023-07-30T06:12:10;17.20;99.90
44229;DHT22;29904;51.058;5.378;2023-07-30T06:14:36;17.30;99.90
44229;DHT22;29904;51.058;5.378;2023-07-30T06:17:02;17.40;99.90
44229;DHT22;29904;51.058;5.378;2023-07-30T06:19:28;17.40;99.90
44229;DHT22;29904;51.058;5.378;2023-07-30T06:21:53;17.50;99.90
44229;DHT22;29904;51.058;5.378;2023-07-30T06:24:20;17.50;99.90
44229;DHT22;29904;51.058;5.378;2023-07-30T06:26:45;17.60;99.90
44229;DHT22;29904;51.058;5.378;2023-07-30T06:29:11;17.60;99.90
44229;DHT22;29904;51.058;5.378;2023-07-30T06:31:37;17.60;99.90
44229;DHT22;29904;51.058;5.378;2023-07-30T06:34:03;17.70;99.90
44229;DHT22;29904;51.058;5.378;2023-07-30T06:36:28;17.80;99.90
44229;DHT22;29904;51.058;5.378;2023-07-30T06:38:54;17.90;99.90
44229;DHT22;29904;51.058;5.378;2023-07-30T06:41:20;18.00;99.90
44229;DHT22;29904;51.058;5.378;2023-07-30T06:43:46;18.10;99.90
44229;DHT22;29904;51.058;5.378;2023-07-30T06:46:12;18.10;99.90
44229;DHT22;29904;51.058;5.378;2023-07-30T06:48:38;18.20;99.90
44229;DHT22;29904;51.058;5.378;2023-07-30T06:51:07;18.30;99.90
44229;DHT22;29904;51.058;5.378;2023-07-30T06:53:33;18.30;99.90
44229;DHT22;29904;51.058;5.378;2023-07-30T06:55:59;18.30;99.90
44229;DHT22;29904;51.058;5.378;2023-07-30T06:58:25;18.20;99.90
44229;DHT22;29904;51.058;5.378;2023-07-30T07:00:50;18.30;99.90
44229;DHT22;29904;51.058;5.378;2023-07-30T07:03:16;18.30;99.90
44229;DHT22;29904;51.058;5.378;2023-07-30T07:05:42;18.20;99.90
44229;DHT22;29904;51.058;5.378;2023-07-30T07:08:08;18.20;99.90
44229;DHT22;29904;51.058;5.378;2023-07-30T07:10:34;18.20;99.90
44229;DHT22;29904;51.058;5.378;2023-07-30T07:12:59;18.20;99.90
44229;DHT22;29904;51.058;5.378;2023-07-30T07:15:25;18.20;99.90
44229;DHT22;29904;51.058;5.378;2023-07-30T07:17:51;18.30;99.90
44229;DHT22;29904;51.058;5.378;2023-07-30T07:20:17;18.20;99.90
44229;DHT22;29904;51.058;5.378;2023-07-30T07:22:43;18.20;99.90
44229;DHT22;29904;51.058;5.378;2023-07-30T07:25:09;18.30;99.90
44229;DHT22;29904;51.058;5.378;2023-07-30T07:27:35;18.50;99.90
44229;DHT22;29904;51.058;5.378;2023-07-30T07:30:01;18.50;99.90
44229;DHT22;29904;51.058;5.378;2023-07-30T07:32:27;18.50;99.90
44229;DHT22;29904;51.058;5.378;2023-07-30T07:34:52;18.70;99.90
44229;DHT22;29904;51.058;5.378;2023-07-30T07:37:18;18.80;99.90
44229;DHT22;29904;51.058;5.378;2023-07-30T07:39:45;18.90;99.90
44229;DHT22;29904;51.058;5.378;2023-07-30T07:42:11;19.10;99.90
44229;DHT22;29904;51.058;5.378;2023-07-30T07:44:37;19.20;99.90
44229;DHT22;29904;51.058;5.378;2023-07-30T07:47:03;19.20;99.90
44229;DHT22;29904;51.058;5.378;2023-07-30T07:49:29;19.20;99.90
44229;DHT22;29904;51.058;5.378;2023-07-30T07:51:55;19.30;99.90
44229;DHT22;29904;51.058;5.378;2023-07-30T07:54:21;19.30;99.90
44229;DHT22;29904;51.058;5.378;2023-07-30T07:56:47;19.30;99.90
44229;DHT22;29904;51.058;5.378;2023-07-30T07:59:13;19.60;99.90
44229;DHT22;29904;51.058;5.378;2023-07-30T08:01:38;19.80;99.90
44229;DHT22;29904;51.058;5.378;2023-07-30T08:04:04;19.90;99.90
44229;DHT22;29904;51.058;5.378;2023-07-30T08:06:32;20.10;99.90
44229;DHT22;29904;51.058;5.378;2023-07-30T08:08:57;20.10;99.90
44229;DHT22;29904;51.058;5.378;2023-07-30T08:11:23;20.10;99.90
44229;DHT22;29904;51.058;5.378;2023-07-30T08:13:49;20.10;99.90
44229;DHT22;29904;51.058;5.378;2023-07-30T08:16:14;20.20;99.90
44229;DHT22;29904;51.058;5.378;2023-07-30T08:18:40;20.20;99.90
44229;DHT22;29904;51.058;5.378;2023-07-30T08:21:06;20.20;99.90
44229;DHT22;29904;51.058;5.378;2023-07-30T08:23:31;20.20;99.90
44229;DHT22;29904;51.058;5.378;2023-07-30T08:25:57;20.20;99.90
44229;DHT22;29904;51.058;5.378;2023-07-30T08:28:23;20.40;99.90
44229;DHT22;29904;51.058;5.378;2023-07-30T08:30:49;20.70;99.90
44229;DHT22;29904;51.058;5.378;2023-07-30T08:33:14;20.70;99.90
44229;DHT22;29904;51.058;5.378;2023-07-30T08:35:40;20.70;99.90
44229;DHT22;29904;51.058;5.378;2023-07-30T08:38:06;20.50;99.90
44229;DHT22;29904;51.058;5.378;2023-07-30T08:40:32;20.70;99.90
44229;DHT22;29904;51.058;5.378;2023-07-30T08:42:58;20.80;99.90
44229;DHT22;29904;51.058;5.378;2023-07-30T08:45:23;21.20;99.90
44229;DHT22;29904;51.058;5.378;2023-07-30T08:47:49;21.50;99.90
44229;DHT22;29904;51.058;5.378;2023-07-30T08:50:15;21.50;99.90
44229;DHT22;29904;51.058;5.378;2023-07-30T08:52:41;21.60;99.90
44229;DHT22;29904;51.058;5.378;2023-07-30T08:55:08;21.70;99.90
44229;DHT22;29904;51.058;5.378;2023-07-30T08:57:36;21.80;99.90
44229;DHT22;29904;51.058;5.378;2023-07-30T09:00:08;22.00;99.90
44229;DHT22;29904;51.058;5.378;2023-07-30T09:02:50;22.10;99.90
44229;DHT22;29904;51.058;5.378;2023-07-30T09:05:16;22.20;99.90
44229;DHT22;29904;51.058;5.378;2023-07-30T09:07:42;22.30;99.90
44229;DHT22;29904;51.058;5.378;2023-07-30T09:10:08;22.00;99.90
44229;DHT22;29904;51.058;5.378;2023-07-30T09:12:35;21.70;99.90
44229;DHT22;29904;51.058;5.378;2023-07-30T09:15:05;21.50;99.90
44229;DHT22;29904;51.058;5.378;2023-07-30T09:17:32;21.30;99.90
44229;DHT22;29904;51.058;5.378;2023-07-30T09:20:05;21.10;99.90
44229;DHT22;29904;51.058;5.378;2023-07-30T09:22:33;20.90;99.90
44229;DHT22;29904;51.058;5.378;2023-07-30T09:25:02;20.70;99.90
44229;DHT22;29904;51.058;5.378;2023-07-30T09:27:28;20.60;99.90
44229;DHT22;29904;51.058;5.378;2023-07-30T09:30:01;20.60;99.90
44229;DHT22;29904;51.058;5.378;2023-07-30T09:32:32;20.50;99.90
44229;DHT22;29904;51.058;5.378;2023-07-30T09:35:10;20.40;99.90
44229;DHT22;29904;51.058;5.378;2023-07-30T09:37:40;20.70;99.90
44229;DHT22;29904;51.058;5.378;2023-07-30T09:40:11;20.80;99.90
44229;DHT22;29904;51.058;5.378;2023-07-30T09:42:38;21.00;99.90
44229;DHT22;29904;51.058;5.378;2023-07-30T09:45:08;21.00;99.90
44229;DHT22;29904;51.058;5.378;2023-07-30T09:47:46;21.00;99.90
44229;DHT22;29904;51.058;5.378;2023-07-30T09:50:13;20.90;99.90
44229;DHT22;29904;51.058;5.378;2023-07-30T09:52:39;20.90;99.90
44229;DHT22;29904;51.058;5.378;2023-07-30T09:55:08;20.90;99.90
44229;DHT22;29904;51.058;5.378;2023-07-30T09:57:34;21.20;99.90
44229;DHT22;29904;51.058;5.378;2023-07-30T10:00:00;21.40;99.90
44229;DHT22;29904;51.058;5.378;2023-07-30T10:02:28;21.50;99.90
44229;DHT22;29904;51.058;5.378;2023-07-30T10:04:57;21.50;99.90
44229;DHT22;29904;51.058;5.378;2023-07-30T10:07:25;21.50;99.90
44229;DHT22;29904;51.058;5.378;2023-07-30T10:09:54;21.40;99.90
44229;DHT22;29904;51.058;5.378;2023-07-30T10:12:27;21.40;99.90
44229;DHT22;29904;51.058;5.378;2023-07-30T10:14:54;21.40;99.90
44229;DHT22;29904;51.058;5.378;2023-07-30T10:17:20;21.40;99.90
44229;DHT22;29904;51.058;5.378;2023-07-30T10:19:49;21.40;99.90
44229;DHT22;29904;51.058;5.378;2023-07-30T10:24:58;21.10;99.90
44229;DHT22;29904;51.058;5.378;2023-07-30T10:27:26;20.90;99.90
44229;DHT22;29904;51.058;5.378;2023-07-30T10:35:38;21.00;99.90
44229;DHT22;29904;51.058;5.378;2023-07-30T10:38:20;21.00;99.90
44229;DHT22;29904;51.058;5.378;2023-07-30T10:41:05;20.80;99.90
44229;DHT22;29904;51.058;5.378;2023-07-30T10:43:35;20.40;99.90
44229;DHT22;29904;51.058;5.378;2023-07-30T10:46:02;19.90;99.90
44229;DHT22;29904;51.058;5.378;2023-07-30T10:48:38;19.60;99.90
44229;DHT22;29904;51.058;5.378;2023-07-30T10:51:15;19.40;99.90
44229;DHT22;29904;51.058;5.378;2023-07-30T10:53:45;19.40;99.90
44229;DHT22;29904;51.058;5.378;2023-07-30T10:56:13;19.50;99.90
44229;DHT22;29904;51.058;5.378;2023-07-30T10:58:40;19.50;99.90
44229;DHT22;29904;51.058;5.378;2023-07-30T11:01:08;19.50;99.90
44229;DHT22;29904;51.058;5.378;2023-07-30T11:03:35;19.50;99.90
44229;DHT22;29904;51.058;5.378;2023-07-30T11:06:02;19.40;99.90
44229;DHT22;29904;51.058;5.378;2023-07-30T11:08:39;19.30;99.90
44229;DHT22;29904;51.058;5.378;2023-07-30T11:11:07;19.20;99.90
44229;DHT22;29904;51.058;5.378;2023-07-30T11:13:41;19.20;99.90
44229;DHT22;29904;51.058;5.378;2023-07-30T11:16:09;19.20;99.90
44229;DHT22;29904;51.058;5.378;2023-07-30T11:18:37;19.10;99.90
44229;DHT22;29904;51.058;5.378;2023-07-30T11:21:04;19.30;99.90
44229;DHT22;29904;51.058;5.378;2023-07-30T11:23:30;19.40;99.90
44229;DHT22;29904;51.058;5.378;2023-07-30T11:25:56;19.70;99.90
44229;DHT22;29904;51.058;5.378;2023-07-30T11:28:29;20.00;99.90
44229;DHT22;29904;51.058;5.378;2023-07-30T11:31:03;20.40;99.90
44229;DHT22;29904;51.058;5.378;2023-07-30T11:33:29;20.70;99.90
44229;DHT22;29904;51.058;5.378;2023-07-30T11:35:56;21.00;99.90
44229;DHT22;29904;51.058;5.378;2023-07-30T11:38:26;21.10;99.90
44229;DHT22;29904;51.058;5.378;2023-07-30T11:40:53;21.50;99.90
44229;DHT22;29904;51.058;5.378;2023-07-30T11:43:19;21.90;99.90
44229;DHT22;29904;51.058;5.378;2023-07-30T11:45:45;22.10;99.90
44229;DHT22;29904;51.058;5.378;2023-07-30T11:48:11;22.50;99.90
44229;DHT22;29904;51.058;5.378;2023-07-30T11:50:48;22.60;99.90
44229;DHT22;29904;51.058;5.378;2023-07-30T11:53:15;22.50;99.90
44229;DHT22;29904;51.058;5.378;2023-07-30T11:55:43;22.50;99.90
44229;DHT22;29904;51.058;5.378;2023-07-30T11:58:10;22.70;99.90
44229;DHT22;29904;51.058;5.378;2023-07-30T12:00:37;23.00;99.90
44229;DHT22;29904;51.058;5.378;2023-07-30T12:03:04;23.10;99.90
44229;DHT22;29904;51.058;5.378;2023-07-30T12:05:34;23.20;99.90
44229;DHT22;29904;51.058;5.378;2023-07-30T12:08:04;23.10;99.90
44229;DHT22;29904;51.058;5.378;2023-07-30T12:10:46;23.10;99.90
44229;DHT22;29904;51.058;5.378;2023-07-30T12:13:16;23.10;99.90
44229;DHT22;29904;51.058;5.378;2023-07-30T12:15:52;23.10;99.90
44229;DHT22;29904;51.058;5.378;2023-07-30T12:18:19;23.20;99.90
44229;DHT22;29904;51.058;5.378;2023-07-30T12:20:46;23.30;99.90
44229;DHT22;29904;51.058;5.378;2023-07-30T12:23:11;23.70;99.90
44229;DHT22;29904;51.058;5.378;2023-07-30T12:25:38;23.90;99.90
44229;DHT22;29904;51.058;5.378;2023-07-30T12:28:04;24.20;99.90
44229;DHT22;29904;51.058;5.378;2023-07-30T12:30:30;24.30;99.90
44229;DHT22;29904;51.058;5.378;2023-07-30T12:32:56;24.20;99.90
44229;DHT22;29904;51.058;5.378;2023-07-30T12:35:22;24.30;99.90
44229;DHT22;29904;51.058;5.378;2023-07-30T12:37:48;24.50;99.90
44229;DHT22;29904;51.058;5.378;2023-07-30T12:40:13;24.80;99.90
44229;DHT22;29904;51.058;5.378;2023-07-30T12:42:39;24.90;99.90
44229;DHT22;29904;51.058;5.378;2023-07-30T12:45:05;25.00;99.90
44229;DHT22;29904;51.058;5.378;2023-07-30T12:47:32;24.80;99.90
44229;DHT22;29904;51.058;5.378;2023-07-30T12:50:01;24.60;99.90
44229;DHT22;29904;51.058;5.378;2023-07-30T12:52:27;24.40;99.90
44229;DHT22;29904;51.058;5.378;2023-07-30T12:54:52;24.30;99.90
44229;DHT22;29904;51.058;5.378;2023-07-30T12:57:18;24.60;99.90
44229;DHT22;29904;51.058;5.378;2023-07-30T12:59:44;24.80;99.90
44229;DHT22;29904;51.058;5.378;2023-07-30T13:02:10;25.00;99.90
44229;DHT22;29904;51.058;5.378;2023-07-30T13:04:35;25.00;99.90
44229;DHT22;29904;51.058;5.378;2023-07-30T13:07:01;25.20;99.90
44229;DHT22;29904;51.058;5.378;2023-07-30T13:09:28;25.20;99.90
44229;DHT22;29904;51.058;5.378;2023-07-30T13:11:54;25.20;99.90
44229;DHT22;29904;51.058;5.378;2023-07-30T13:14:19;25.20;99.90
44229;DHT22;29904;51.058;5.378;2023-07-30T13:16:45;25.20;99.90
44229;DHT22;29904;51.058;5.378;2023-07-30T13:19:11;25.30;99.90
44229;DHT22;29904;51.058;5.378;2023-07-30T13:21:37;25.30;99.90
44229;DHT22;29904;51.058;5.378;2023-07-30T13:24:03;25.20;99.90
44229;DHT22;29904;51.058;5.378;2023-07-30T13:26:29;25.30;99.90
44229;DHT22;29904;51.058;5.378;2023-07-30T13:28:55;25.60;99.90
44229;DHT22;29904;51.058;5.378;2023-07-30T13:31:20;25.90;99.90
44229;DHT22;29904;51.058;5.378;2023-07-30T13:33:46;25.60;99.90
44229;DHT22;29904;51.058;5.378;2023-07-30T13:36:13;25.50;99.90
44229;DHT22;29904;51.058;5.378;2023-07-30T13:38:40;25.50;99.90
44229;DHT22;29904;51.058;5.378;2023-07-30T13:41:06;25.50;99.90
44229;DHT22;29904;51.058;5.378;2023-07-30T13:43:32;25.50;99.90
44229;DHT22;29904;51.058;5.378;2023-07-30T13:45:58;25.40;99.90
44229;DHT22;29904;51.058;5.378;2023-07-30T13:48:25;25.10;99.90
44229;DHT22;29904;51.058;5.378;2023-07-30T13:50:51;24.80;99.90
44229;DHT22;29904;51.058;5.378;2023-07-30T13:53:17;24.70;99.90
44229;DHT22;29904;51.058;5.378;2023-07-30T13:55:43;24.80;99.90
44229;DHT22;29904;51.058;5.378;2023-07-30T13:58:09;25.00;99.90
44229;DHT22;29904;51.058;5.378;2023-07-30T14:00:34;25.10;99.90
44229;DHT22;29904;51.058;5.378;2023-07-30T14:03:00;25.30;99.90
44229;DHT22;29904;51.058;5.378;2023-07-30T14:05:26;25.40;99.90
44229;DHT22;29904;51.058;5.378;2023-07-30T14:07:55;25.40;99.90
44229;DHT22;29904;51.058;5.378;2023-07-30T14:10:23;25.50;99.90
44229;DHT22;29904;51.058;5.378;2023-07-30T14:12:49;25.60;99.90
44229;DHT22;29904;51.058;5.378;2023-07-30T14:15:15;25.60;99.90
44229;DHT22;29904;51.058;5.378;2023-07-30T14:17:41;25.50;99.90
44229;DHT22;29904;51.058;5.378;2023-07-30T14:20:07;25.40;99.90
44229;DHT22;29904;51.058;5.378;2023-07-30T14:22:34;25.40;99.90
44229;DHT22;29904;51.058;5.378;2023-07-30T14:25:01;25.50;99.90
44229;DHT22;29904;51.058;5.378;2023-07-30T14:27:27;25.40;99.90
44229;DHT22;29904;51.058;5.378;2023-07-30T14:29:52;25.10;99.90
44229;DHT22;29904;51.058;5.378;2023-07-30T14:32:22;25.00;99.90
44229;DHT22;29904;51.058;5.378;2023-07-30T14:34:48;25.10;99.90
44229;DHT22;29904;51.058;5.378;2023-07-30T14:37:14;25.20;99.90
44229;DHT22;29904;51.058;5.378;2023-07-30T14:39:40;25.10;99.90
44229;DHT22;29904;51.058;5.378;2023-07-30T14:42:07;24.70;99.90
44229;DHT22;29904;51.058;5.378;2023-07-30T14:44:33;24.40;99.90
44229;DHT22;29904;51.058;5.378;2023-07-30T14:46:59;24.20;99.90
44229;DHT22;29904;51.058;5.378;2023-07-30T14:49:25;24.30;99.90
44229;DHT22;29904;51.058;5.378;2023-07-30T14:51:51;24.50;99.90
44229;DHT22;29904;51.058;5.378;2023-07-30T14:54:17;24.90;99.90
44229;DHT22;29904;51.058;5.378;2023-07-30T14:56:43;25.10;99.90
44229;DHT22;29904;51.058;5.378;2023-07-30T14:59:09;25.10;99.90
44229;DHT22;29904;51.058;5.378;2023-07-30T15:01:35;24.70;99.90
44229;DHT22;29904;51.058;5.378;2023-07-30T15:04:02;24.60;99.90
44229;DHT22;29904;51.058;5.378;2023-07-30T15:06:30;24.70;99.90
44229;DHT22;29904;51.058;5.378;2023-07-30T15:08:56;24.80;99.90
44229;DHT22;29904;51.058;5.378;2023-07-30T15:11:21;24.60;99.90
44229;DHT22;29904;51.058;5.378;2023-07-30T15:13:47;24.60;99.90
44229;DHT22;29904;51.058;5.378;2023-07-30T15:16:13;24.50;99.90
44229;DHT22;29904;51.058;5.378;2023-07-30T15:18:40;24.40;99.90
44229;DHT22;29904;51.058;5.378;2023-07-30T15:21:12;24.30;99.90
44229;DHT22;29904;51.058;5.378;2023-07-30T15:23:37;24.20;99.90
44229;DHT22;29904;51.058;5.378;2023-07-30T15:26:03;24.00;99.90
44229;DHT22;29904;51.058;5.378;2023-07-30T15:28:29;23.90;99.90
44229;DHT22;29904;51.058;5.378;2023-07-30T15:30:55;23.90;99.90
44229;DHT22;29904;51.058;5.378;2023-07-30T15:33:23;23.90;99.90
44229;DHT22;29904;51.058;5.378;2023-07-30T15:35:49;23.90;99.90